Time;durP1;ratioP1;P1;durP2;ratioP2;P2;SDS_P1;SDS_P2;PMS_P1;PMS_P2;Temp;Humidity;BMP_temperature;BMP_pressure;BME280_temperature;BME280_humidity;BME280_pressure;Samples;Min_cycle;Max_cycle;Signal;HPM_P1;HPM_P2
2021/04/12 00:01:19;;;;;;;14.82;5.28;;;;;;;9.98;55.92;99906.25;5038868;27;97610;-75
2021/04/12 00:03:51;;;;;;;9.68;5.05;;;;;;;9.89;55.55;99917.94;5054559;27;97619;-73
2021/04/12 00:06:20;;;;;;;12.23;5.55;;;;;;;9.88;55.96;99915.34;5067540;27;97964;-73
2021/04/12 00:08:58;;;;;;;10.55;5.10;;;;;;;9.76;56.72;99919.28;5068804;27;96984;-74
2021/04/12 00:11:44;;;;;;;13.38;5.95;;;;;;;9.75;55.96;99921.06;5043554;27;97121;-76
2021/04/12 00:14:17;;;;;;;10.77;5.28;;;;;;;9.67;56.47;99914.38;5036258;27;101614;-73
2021/04/12 00:16:46;;;;;;;11.95;5.30;;;;;;;9.57;56.83;99921.75;5031830;27;102653;-73
2021/04/12 00:19:26;;;;;;;17.48;5.78;;;;;;;9.51;56.99;99914.06;5042306;27;97371;-74
2021/04/12 00:22:03;;;;;;;10.80;6.05;;;;;;;9.50;57.22;99922.84;5051088;27;97173;-74
2021/04/12 00:24:57;;;;;;;10.15;4.60;;;;;;;9.43;57.49;99924.00;5051952;27;102098;-74
2021/04/12 00:27:37;;;;;;;10.35;4.78;;;;;;;9.46;57.07;99922.13;5062995;27;101056;-74
2021/04/12 00:30:15;;;;;;;10.13;5.28;;;;;;;9.31;57.48;99920.03;5050814;27;96804;-73
2021/04/12 00:33:02;;;;;;;8.98;4.57;;;;;;;9.27;57.59;99915.81;5056245;27;96831;-74
2021/04/12 00:36:17;;;;;;;10.63;4.63;;;;;;;9.27;57.36;99908.78;5051361;27;97972;-74
2021/04/12 00:39:00;;;;;;;9.57;4.85;;;;;;;9.35;57.14;99913.78;4983388;28;99474;-73
2021/04/12 00:42:05;;;;;;;7.72;4.45;;;;;;;9.33;57.41;99912.13;4989795;28;96910;-75
2021/04/12 00:45:08;;;;;;;8.73;5.15;;;;;;;9.37;56.92;99905.88;4992112;28;97076;-74
2021/04/12 00:48:15;;;;;;;11.57;4.90;;;;;;;9.41;56.58;99907.47;4993679;28;97948;-73
2021/04/12 00:51:18;;;;;;;9.45;4.60;;;;;;;9.33;57.06;99909.50;4979271;28;98525;-74
2021/04/12 00:53:44;;;;;;;9.98;4.85;;;;;;;9.32;57.34;99910.41;4989366;28;97087;-73
2021/04/12 00:56:18;;;;;;;9.68;4.80;;;;;;;9.28;57.18;99910.53;5009505;28;97144;-73
2021/04/12 00:59:05;;;;;;;11.60;4.75;;;;;;;9.19;57.40;99900.38;4987496;28;97991;-73
2021/04/12 01:01:45;;;;;;;12.30;5.13;;;;;;;9.09;57.96;99898.97;4956532;28;99842;-73
2021/04/12 01:04:34;;;;;;;11.25;5.00;;;;;;;9.16;57.74;99905.72;4975257;28;97096;-72
2021/04/12 01:07:29;;;;;;;13.20;5.47;;;;;;;9.06;57.68;99904.31;4991502;28;97092;-73
2021/04/12 01:10:14;;;;;;;11.60;5.28;;;;;;;9.01;58.30;99912.31;5033099;27;98057;-80
2021/04/12 01:12:58;;;;;;;12.73;5.65;;;;;;;8.96;58.00;99916.00;5043637;27;101147;-71
2021/04/12 01:15:45;;;;;;;14.73;6.28;;;;;;;9.02;57.81;99911.44;5072191;27;96874;-75
2021/04/12 01:18:17;;;;;;;9.63;4.85;;;;;;;9.09;58.06;99927.78;5026520;27;97256;-71
2021/04/12 01:21:17;;;;;;;13.18;5.15;;;;;;;9.30;57.26;99934.03;5047896;27;101454;-72
2021/04/12 01:24:01;;;;;;;11.98;5.03;;;;;;;9.39;56.88;99946.81;5060924;27;98314;-72
2021/04/12 01:26:41;;;;;;;14.80;5.15;;;;;;;9.33;57.31;99948.78;5026949;27;97082;-72
2021/04/12 01:29:28;;;;;;;11.38;4.60;;;;;;;9.35;57.04;99958.31;5064114;27;96694;-75
2021/04/12 01:32:20;;;;;;;12.60;5.55;;;;;;;9.19;57.41;99957.13;5053807;27;101221;-78
2021/04/12 01:35:19;;;;;;;9.90;5.03;;;;;;;9.24;57.23;99969.16;5054841;27;97844;-71
2021/04/12 01:37:50;;;;;;;11.48;4.60;;;;;;;9.30;56.78;99971.56;5058815;27;97960;-71
2021/04/12 01:40:21;;;;;;;14.15;4.97;;;;;;;9.33;56.89;99980.22;5059554;27;97178;-71
2021/04/12 01:43:10;;;;;;;9.00;4.70;;;;;;;9.37;56.53;99980.06;5055219;27;101210;-72
2021/04/12 01:45:46;;;;;;;12.98;4.82;;;;;;;9.28;56.71;99976.00;5032351;27;97319;-72
2021/04/12 01:48:36;;;;;;;9.25;4.45;;;;;;;9.23;57.23;99998.03;5070182;27;96993;-72
2021/04/12 01:51:18;;;;;;;10.23;4.88;;;;;;;9.32;56.97;99996.84;5053081;27;96768;-72
2021/04/12 01:54:41;;;;;;;10.02;4.47;;;;;;;9.31;56.84;100019.59;5061088;27;98082;-72
2021/04/12 01:57:13;;;;;;;17.63;5.20;;;;;;;9.27;57.26;100015.34;4990978;28;101475;-72
2021/04/12 02:00:03;;;;;;;8.55;4.55;;;;;;;9.24;57.79;100007.59;5054006;27;97277;-72
2021/04/12 02:03:13;;;;;;;9.30;5.03;;;;;;;9.20;57.44;100022.56;5069764;27;97126;-71
2021/04/12 02:05:57;;;;;;;12.07;4.22;;;;;;;9.24;57.62;100005.81;5021654;27;98913;-72
2021/04/12 02:08:41;;;;;;;10.02;4.50;;;;;;;9.07;57.79;99997.66;5072080;27;98377;-76
2021/04/12 02:11:10;;;;;;;12.18;5.10;;;;;;;9.14;57.92;100006.19;5070555;27;97089;-74
2021/04/12 02:13:54;;;;;;;11.10;5.63;;;;;;;9.16;57.55;100005.25;5071591;27;97346;-74
2021/04/12 02:16:37;;;;;;;10.82;4.63;;;;;;;9.11;57.84;100015.00;5070185;27;98987;-74
2021/04/12 02:19:24;;;;;;;14.07;5.15;;;;;;;9.09;57.78;100005.47;5053105;27;100982;-74
2021/04/12 02:22:30;;;;;;;15.98;4.75;;;;;;;9.08;58.30;100012.47;5068879;27;97675;-74
2021/04/12 02:25:01;;;;;;;13.05;4.82;;;;;;;9.07;58.10;100010.75;5058966;27;97025;-80
2021/04/12 02:27:45;;;;;;;12.32;5.63;;;;;;;9.14;57.90;100016.66;5032833;27;100965;-72
2021/04/12 02:30:23;;;;;;;11.35;5.43;;;;;;;9.08;58.08;100017.72;5037695;27;97717;-72
2021/04/12 02:33:07;;;;;;;13.13;4.97;;;;;;;8.99;58.06;100021.50;5071180;27;96997;-71
2021/04/12 02:35:38;;;;;;;14.02;5.88;;;;;;;8.95;58.48;100019.00;5044878;27;97146;-72
2021/04/12 02:38:09;;;;;;;13.00;5.00;;;;;;;8.97;58.66;100032.91;5048390;27;98284;-71
2021/04/12 02:40:56;;;;;;;11.95;4.80;;;;;;;9.00;57.96;100028.44;5049923;27;101666;-73
2021/04/12 02:43:50;;;;;;;11.13;5.55;;;;;;;8.99;58.44;100042.44;5065186;27;96750;-74
2021/04/12 02:46:51;;;;;;;10.15;4.80;;;;;;;8.91;58.90;100044.44;5024750;27;97362;-72
2021/04/12 02:49:23;;;;;;;13.15;5.60;;;;;;;8.89;58.58;100041.00;5046759;27;99413;-76
2021/04/12 02:51:54;;;;;;;13.23;5.80;;;;;;;8.88;59.12;100041.91;5053545;27;101437;-72
2021/04/12 02:54:25;;;;;;;11.17;5.77;;;;;;;8.91;58.84;100043.59;5049539;27;96849;-71
2021/04/12 02:57:15;;;;;;;13.65;5.78;;;;;;;8.96;59.47;100041.66;5061058;27;97235;-75
2021/04/12 02:59:44;;;;;;;11.65;5.82;;;;;;;8.95;59.35;100038.19;5070946;27;98269;-73
2021/04/12 03:02:15;;;;;;;11.25;5.38;;;;;;;8.97;59.54;100036.38;5069390;27;101549;-72
2021/04/12 03:04:43;;;;;;;14.27;5.60;;;;;;;8.99;59.78;100045.06;5061098;27;97138;-71
2021/04/12 03:07:19;;;;;;;13.93;6.05;;;;;;;9.00;60.72;100035.44;5052362;27;97130;-75
2021/04/12 03:09:48;;;;;;;16.42;7.88;;;;;;;9.05;61.37;100046.63;5070320;27;97877;-77
2021/04/12 03:13:05;;;;;;;17.63;8.00;;;;;;;9.07;62.80;100039.56;5046913;27;101571;-74
2021/04/12 03:15:52;;;;;;;15.35;6.75;;;;;;;9.14;62.97;100048.94;4991132;28;96834;-74
2021/04/12 03:18:55;;;;;;;15.00;7.63;;;;;;;9.14;63.82;100048.94;5015268;28;97185;-71
2021/04/12 03:21:27;;;;;;;12.02;8.00;;;;;;;9.19;64.45;100047.03;4988305;28;101837;-74
2021/04/12 03:24:11;;;;;;;13.25;7.93;;;;;;;9.24;64.94;100052.09;4994529;28;101453;-71
2021/04/12 03:26:55;;;;;;;15.63;8.80;;;;;;;9.29;65.31;100050.19;4993821;28;96763;-72
2021/04/12 03:29:45;;;;;;;14.98;8.77;;;;;;;9.26;65.50;100048.53;4994183;28;97297;-72
2021/04/12 03:32:49;;;;;;;13.75;8.43;;;;;;;9.33;66.18;100053.56;4961985;28;101734;-73
2021/04/12 03:35:21;;;;;;;15.77;9.65;;;;;;;9.35;66.68;100044.75;4993488;28;100995;-74
2021/04/12 03:37:50;;;;;;;14.45;9.32;;;;;;;9.46;66.41;100053.13;4992670;28;97186;-74
2021/04/12 03:40:40;;;;;;;18.88;10.10;;;;;;;9.49;66.50;100049.53;4991466;28;97251;-74
2021/04/12 03:43:11;;;;;;;15.75;11.02;;;;;;;9.53;66.80;100049.38;4998026;28;98765;-74
2021/04/12 03:46:05;;;;;;;15.00;10.32;;;;;;;9.64;67.01;100056.88;5011283;27;101304;-74
2021/04/12 03:48:55;;;;;;;15.25;10.45;;;;;;;9.67;67.44;100058.53;5057361;27;97195;-74
2021/04/12 03:51:30;;;;;;;19.08;10.50;;;;;;;9.75;66.99;100053.88;5052181;27;97230;-78
2021/04/12 03:54:05;;;;;;;16.75;11.65;;;;;;;9.83;67.12;100061.47;5069139;27;98040;-75
2021/04/12 03:56:33;;;;;;;18.23;11.73;;;;;;;9.84;67.84;100057.94;5069261;27;98004;-74
2021/04/12 03:59:16;;;;;;;22.20;13.13;;;;;;;9.89;67.82;100063.88;5054818;27;97047;-81
2021/04/12 04:02:09;;;;;;;22.80;12.05;;;;;;;9.94;68.34;100067.19;5073170;27;97472;-75
2021/04/12 04:04:58;;;;;;;22.20;13.05;;;;;;;10.01;67.71;100078.34;5061242;27;98134;-74
2021/04/12 04:07:59;;;;;;;20.30;13.32;;;;;;;10.07;67.96;100078.97;5004946;27;101286;-76
2021/04/12 04:10:40;;;;;;;23.92;13.65;;;;;;;10.12;68.26;100086.66;5033003;27;97036;-76
2021/04/12 04:13:27;;;;;;;18.60;12.83;;;;;;;10.12;67.96;100086.66;5066748;27;96722;-74
2021/04/12 04:16:13;;;;;;;21.52;14.55;;;;;;;10.16;68.77;100099.63;5073861;27;97976;-74
2021/04/12 04:19:17;;;;;;;22.15;13.80;;;;;;;10.17;68.58;100098.69;5065407;27;98360;-75
2021/04/12 04:22:18;;;;;;;25.38;15.93;;;;;;;10.22;68.13;100095.91;5071643;27;97206;-72
2021/04/12 04:24:52;;;;;;;28.95;16.33;;;;;;;10.25;68.82;100095.81;5033992;27;97391;-76
2021/04/12 04:27:40;;;;;;;29.15;17.27;;;;;;;10.28;68.26;100103.59;5059724;27;102312;-72
2021/04/12 04:30:14;;;;;;;26.88;15.82;;;;;;;10.36;68.07;100112.06;5055525;27;101176;-75
2021/04/12 04:32:45;;;;;;;28.05;17.35;;;;;;;10.32;68.25;100112.22;5055911;27;96983;-75
2021/04/12 04:35:15;;;;;;;30.35;17.27;;;;;;;10.26;68.98;100118.50;5055307;27;96754;-75
2021/04/12 04:38:22;;;;;;;34.15;18.10;;;;;;;10.32;68.61;100120.94;5071713;27;101831;-78
2021/04/12 04:41:10;;;;;;;27.88;16.88;;;;;;;10.36;69.26;100137.44;5053645;27;97883;-74
2021/04/12 04:43:50;;;;;;;28.55;18.50;;;;;;;10.36;69.57;100147.94;5068761;27;97283;-75
2021/04/12 04:46:58;;;;;;;31.17;18.52;;;;;;;10.37;69.83;100149.63;5067330;27;97929;-75
2021/04/12 04:49:47;;;;;;;29.75;18.33;;;;;;;10.47;68.92;100161.53;5033770;27;100551;-77
2021/04/12 04:52:50;;;;;;;32.00;20.80;;;;;;;10.53;69.02;100173.53;5040971;27;101315;-76
2021/04/12 04:55:47;;;;;;;33.58;20.55;;;;;;;10.51;69.76;100175.38;5054734;27;97118;-79
2021/04/12 04:58:30;;;;;;;29.88;20.48;;;;;;;10.51;69.63;100188.50;5054244;27;97308;-74
2021/04/12 05:01:04;;;;;;;31.20;22.25;;;;;;;10.54;69.59;100204.16;5071906;27;99747;-76
2021/04/12 05:03:52;;;;;;;37.53;21.58;;;;;;;10.57;69.88;100204.88;5059626;27;101884;-74
2021/04/12 05:06:55;;;;;;;34.85;21.27;;;;;;;10.55;69.83;100204.06;5059174;27;97447;-74
2021/04/12 05:09:39;;;;;;;27.98;19.63;;;;;;;10.73;68.77;100214.81;5067188;27;97585;-75
2021/04/12 05:12:19;;;;;;;28.40;19.73;;;;;;;10.79;68.52;100214.59;5053516;27;98019;-72
2021/04/12 05:14:57;;;;;;;30.85;19.98;;;;;;;11.03;67.55;100215.50;5037987;27;101601;-72
2021/04/12 05:17:52;;;;;;;30.27;19.77;;;;;;;11.05;67.75;100216.25;5059454;27;97356;-76
2021/04/12 05:20:52;;;;;;;29.30;19.75;;;;;;;10.99;67.98;100227.84;5071558;27;96874;-73
2021/04/12 05:23:33;;;;;;;30.73;18.20;;;;;;;10.93;67.79;100229.84;5069832;27;100968;-74
2021/04/12 05:26:28;;;;;;;25.97;17.70;;;;;;;10.88;67.14;100233.53;5071549;27;97786;-78
2021/04/12 05:29:09;;;;;;;30.30;17.52;;;;;;;10.84;67.57;100233.69;5032835;27;97409;-74
2021/04/12 05:31:46;;;;;;;23.48;16.05;;;;;;;10.83;67.03;100224.09;5070483;27;96974;-73
2021/04/12 05:34:35;;;;;;;23.20;15.93;;;;;;;10.89;66.41;100231.75;5043967;27;101519;-73
2021/04/12 05:37:28;;;;;;;22.92;14.50;;;;;;;10.75;66.39;100229.63;5033928;27;101316;-78
2021/04/12 05:40:48;;;;;;;23.52;15.32;;;;;;;10.73;66.68;100238.47;5036295;27;97300;-76
2021/04/12 05:43:42;;;;;;;24.42;15.88;;;;;;;10.65;66.48;100244.00;4931682;28;97333;-73
2021/04/12 05:46:41;;;;;;;27.98;15.77;;;;;;;10.67;66.54;100251.81;4970367;28;101941;-72
2021/04/12 05:49:32;;;;;;;23.63;14.90;;;;;;;10.62;66.36;100252.84;5047035;27;100984;-74
2021/04/12 05:52:22;;;;;;;20.67;15.60;;;;;;;10.60;66.04;100251.19;5053675;27;97248;-76
2021/04/12 05:55:13;;;;;;;26.00;15.95;;;;;;;10.62;65.93;100260.72;5063992;27;96992;-73
2021/04/12 05:57:59;;;;;;;21.95;14.38;;;;;;;10.57;65.89;100261.78;5046488;27;101293;-73
2021/04/12 06:00:30;;;;;;;23.95;15.20;;;;;;;10.63;65.88;100262.41;5060271;27;101142;-76
2021/04/12 06:03:16;;;;;;;18.60;13.87;;;;;;;10.73;66.21;100269.97;5054291;27;97096;-73
2021/04/12 06:06:23;;;;;;;19.35;14.45;;;;;;;10.73;65.68;100277.84;5054406;27;97157;-74
2021/04/12 06:08:48;;;;;;;21.23;15.52;;;;;;;10.62;65.82;100273.84;5018820;27;101619;-73
2021/04/12 06:11:38;;;;;;;22.27;15.07;;;;;;;10.60;66.11;100274.81;5060334;27;101465;-73
2021/04/12 06:14:23;;;;;;;19.75;14.48;;;;;;;10.62;65.96;100275.63;5060317;27;96784;-75
2021/04/12 06:17:36;;;;;;;23.10;14.13;;;;;;;10.67;65.83;100278.06;5060577;27;97219;-71
2021/04/12 06:20:01;;;;;;;;;;;;;;;10.62;65.97;100276.47;5062953;27;99977;-72
2021/04/12 06:22:36;;;;;;;24.40;16.35;;;;;;;10.60;66.20;100285.31;5071370;27;97798;-73
2021/04/12 06:25:23;;;;;;;28.85;15.07;;;;;;;10.53;65.88;100292.53;5053405;27;96722;-72
2021/04/12 06:28:20;;;;;;;21.45;14.80;;;;;;;10.55;66.18;100308.22;5052180;27;97079;-72
2021/04/12 06:30:50;;;;;;;20.40;14.95;;;;;;;10.55;66.31;100306.44;5064380;27;101595;-72
2021/04/12 06:33:45;;;;;;;27.52;17.27;;;;;;;10.39;66.29;100303.50;5056171;27;101668;-72
2021/04/12 06:36:27;;;;;;;29.67;17.13;;;;;;;10.39;66.70;100302.63;5026980;27;97242;-72
2021/04/12 06:39:07;;;;;;;26.98;17.27;;;;;;;10.40;66.40;100304.34;5031550;27;96939;-73
2021/04/12 06:41:55;;;;;;;29.55;16.90;;;;;;;10.33;66.42;100311.56;5047459;27;98245;-72
2021/04/12 06:44:50;;;;;;;25.50;17.60;;;;;;;10.29;66.43;100315.19;5053011;27;97666;-72
2021/04/12 06:47:25;;;;;;;25.40;16.50;;;;;;;10.19;66.45;100311.97;4976877;27;97583;-72
2021/04/12 06:50:28;;;;;;;25.52;15.32;;;;;;;10.13;66.46;100312.19;5067898;27;96961;-71
2021/04/12 06:53:31;;;;;;;21.02;13.30;;;;;;;10.19;66.63;100316.38;5067318;27;101195;-72
2021/04/12 06:55:58;;;;;;;20.10;11.07;;;;;;;10.16;66.60;100326.97;5049370;27;100783;-72
2021/04/12 06:59:01;;;;;;;14.43;10.85;;;;;;;10.14;65.82;100340.13;5067234;27;97449;-72
2021/04/12 07:01:46;;;;;;;15.30;10.23;;;;;;;10.09;66.11;100344.66;5061132;27;96785;-72
2021/04/12 07:04:33;;;;;;;16.83;9.10;;;;;;;9.99;66.68;100343.25;5051348;27;97937;-79
2021/04/12 07:07:44;;;;;;;14.77;8.80;;;;;;;9.96;65.95;100349.44;5050573;27;101295;-73
2021/04/12 07:11:04;;;;;;;16.80;9.10;;;;;;;10.04;66.29;100357.06;5011805;27;97473;-80
2021/04/12 07:13:35;;;;;;;18.08;9.25;;;;;;;10.04;66.28;100356.22;4986176;28;97468;-72
2021/04/12 07:16:28;;;;;;;26.30;10.55;;;;;;;10.13;66.23;100354.16;5055230;27;101388;-74
2021/04/12 07:19:06;;;;;;;11.93;7.90;;;;;;;10.11;66.21;100366.44;5070011;27;101238;-79
2021/04/12 07:22:09;;;;;;;11.65;7.47;;;;;;;10.16;65.00;100366.31;5046984;27;97329;-73
2021/04/12 07:25:04;;;;;;;10.40;7.32;;;;;;;10.03;65.12;100372.84;5044873;27;96872;-74
2021/04/12 07:28:04;;;;;;;13.55;7.57;;;;;;;10.12;64.73;100370.81;5013313;27;102138;-77
2021/04/12 07:30:41;;;;;;;12.25;7.03;;;;;;;10.12;65.17;100376.06;5032259;27;99444;-75
2021/04/12 07:33:37;;;;;;;13.98;6.60;;;;;;;10.12;64.82;100375.16;5064192;27;97131;-74
2021/04/12 07:36:12;;;;;;;18.42;7.40;;;;;;;10.23;64.07;100383.56;5044778;27;97028;-77
2021/04/12 07:38:59;;;;;;;17.33;8.90;;;;;;;10.10;64.51;100392.75;5051960;27;101128;-74
2021/04/12 07:41:56;;;;;;;9.32;6.28;;;;;;;10.13;64.69;100393.50;5048029;27;101336;-75
2021/04/12 07:44:46;;;;;;;11.98;7.57;;;;;;;10.04;64.19;100403.44;5048884;27;97267;-74
2021/04/12 07:47:30;;;;;;;18.40;8.32;;;;;;;9.83;64.78;100403.16;5060763;27;98468;-75
2021/04/12 07:50:02;;;;;;;12.98;6.38;;;;;;;9.97;64.94;100408.84;5069049;27;97956;-76
2021/04/12 07:52:46;;;;;;;10.85;7.03;;;;;;;9.95;65.04;100410.66;5081626;27;97864;-75
2021/04/12 07:55:24;;;;;;;9.68;6.50;;;;;;;9.88;64.77;100421.38;5069284;27;96797;-75
2021/04/12 07:58:38;;;;;;;10.35;6.88;;;;;;;9.74;64.82;100427.88;5055978;27;97172;-75
2021/04/12 08:01:12;;;;;;;15.88;6.75;;;;;;;9.85;64.67;100429.31;5038153;27;99553;-74
2021/04/12 08:03:58;;;;;;;9.02;7.07;;;;;;;9.80;64.77;100433.84;5068003;27;97828;-74
2021/04/12 08:06:57;;;;;;;12.10;7.65;;;;;;;9.59;65.17;100440.56;5051596;27;98158;-74
2021/04/12 08:09:55;;;;;;;15.90;8.05;;;;;;;9.64;65.26;100439.53;5077679;27;97418;-74
2021/04/12 08:13:15;;;;;;;16.92;7.45;;;;;;;9.69;65.37;100452.50;5065085;27;97664;-75
2021/04/12 08:16:08;;;;;;;12.77;6.13;;;;;;;9.72;65.02;100458.53;5071551;27;98010;-75
2021/04/12 08:18:40;;;;;;;7.63;6.53;;;;;;;9.70;63.99;100457.69;5052657;27;97207;-76
2021/04/12 08:21:12;;;;;;;12.63;6.50;;;;;;;9.67;63.83;100460.41;5081409;27;97376;-80
2021/04/12 08:23:41;;;;;;;7.53;5.53;;;;;;;9.67;64.30;100470.88;5051190;27;99316;-74
2021/04/12 08:26:35;;;;;;;12.50;5.05;;;;;;;9.83;63.59;100470.44;5089021;27;97932;-74
2021/04/12 08:29:31;;;;;;;10.80;4.88;;;;;;;9.92;63.58;100471.06;5058160;27;97240;-74
2021/04/12 08:32:22;;;;;;;18.17;5.47;;;;;;;9.88;62.24;100476.44;5051985;27;96946;-74
2021/04/12 08:35:10;;;;;;;6.43;3.70;;;;;;;9.79;62.85;100479.31;5068546;27;101600;-74
2021/04/12 08:38:09;;;;;;;8.13;3.75;;;;;;;9.63;62.61;100486.72;5029157;27;98716;-74
2021/04/12 08:40:53;;;;;;;12.07;3.92;;;;;;;9.54;62.52;100490.50;5087612;27;97283;-73
2021/04/12 08:43:42;;;;;;;8.10;3.10;;;;;;;9.52;62.33;100508.88;5052068;27;97358;-75
2021/04/12 08:46:39;;;;;;;6.18;3.80;;;;;;;9.56;62.76;100501.78;5047859;27;101249;-74
2021/04/12 08:49:12;;;;;;;8.15;3.60;;;;;;;9.60;62.10;100507.78;5054931;27;101374;-79
2021/04/12 08:52:13;;;;;;;4.65;3.08;;;;;;;9.50;62.28;100513.28;5073079;27;97376;-74
2021/04/12 08:55:20;;;;;;;10.55;3.67;;;;;;;9.44;62.86;100520.44;5061013;27;97715;-75
2021/04/12 08:57:57;;;;;;;10.18;2.85;;;;;;;9.45;62.47;100516.91;5048926;27;97658;-75
2021/04/12 09:00:35;;;;;;;9.25;2.75;;;;;;;9.55;62.51;100530.66;5055334;27;97429;-75
2021/04/12 09:03:21;;;;;;;4.50;2.58;;;;;;;9.42;62.51;100536.19;5053482;27;97327;-74
2021/04/12 09:05:56;;;;;;;6.20;2.92;;;;;;;9.39;62.87;100538.03;5069076;27;97422;-76
2021/04/12 09:08:22;;;;;;;3.63;2.60;;;;;;;9.42;62.65;100530.09;5055429;27;101022;-75
2021/04/12 09:11:12;;;;;;;9.27;3.10;;;;;;;9.43;62.30;100534.47;5056533;27;101134;-77
2021/04/12 09:14:16;;;;;;;6.88;2.67;;;;;;;9.54;61.90;100540.28;5071122;27;97156;-74
2021/04/12 09:17:19;;;;;;;7.13;2.10;;;;;;;9.56;61.52;100538.47;5074764;27;97200;-74
2021/04/12 09:20:02;;;;;;;6.63;2.50;;;;;;;9.47;62.02;100542.19;5054853;27;101276;-76
2021/04/12 09:22:47;;;;;;;7.93;2.40;;;;;;;9.59;61.32;100540.16;5048930;27;101311;-74
2021/04/12 09:25:54;;;;;;;6.40;1.95;;;;;;;9.56;61.96;100550.72;5040342;27;96783;-74
2021/04/12 09:28:41;;;;;;;5.88;1.95;;;;;;;9.49;61.68;100556.13;5056281;27;97393;-77
2021/04/12 09:31:44;;;;;;;5.30;2.03;;;;;;;9.44;61.55;100558.00;5073288;27;98354;-80
2021/04/12 09:34:36;;;;;;;4.78;2.35;;;;;;;9.43;61.54;100558.91;5086117;27;98343;-74
2021/04/12 09:37:50;;;;;;;12.07;2.10;;;;;;;9.55;61.71;100559.50;5074661;27;97147;-80
2021/04/12 09:40:34;;;;;;;3.28;2.03;;;;;;;9.43;61.38;100561.53;5093623;27;96773;-74
2021/04/12 09:43:20;;;;;;;4.57;2.45;;;;;;;9.45;61.95;100558.84;5073761;27;97581;-74
2021/04/12 09:45:57;;;;;;;5.47;2.28;;;;;;;9.46;62.28;100566.69;5073543;27;101807;-77
2021/04/12 09:49:04;;;;;;;5.72;2.53;;;;;;;9.32;63.22;100565.31;5066584;27;97289;-72
2021/04/12 09:51:44;;;;;;;3.92;2.50;;;;;;;9.23;64.05;100574.25;5093310;27;97142;-72
2021/04/12 09:54:40;;;;;;;3.28;2.90;;;;;;;9.19;64.01;100578.72;5067614;27;101740;-73
2021/04/12 09:57:42;;;;;;;5.15;2.47;;;;;;;9.12;65.23;100571.03;5052417;27;100851;-73
2021/04/12 10:00:29;;;;;;;6.25;2.50;;;;;;;9.30;64.70;100574.03;5045369;27;97455;-73
2021/04/12 10:03:01;;;;;;;4.95;2.50;;;;;;;9.38;64.58;100580.88;5056821;27;96983;-72
2021/04/12 10:05:48;;;;;;;5.00;2.22;;;;;;;9.39;64.62;100585.19;5042595;27;99561;-74
2021/04/12 10:08:30;;;;;;;5.50;2.83;;;;;;;9.35;64.07;100597.53;5070705;27;97528;-74
2021/04/12 10:11:01;;;;;;;6.35;2.50;;;;;;;9.22;63.82;100591.75;5036587;27;98094;-79
2021/04/12 10:13:49;;;;;;;7.28;3.15;;;;;;;9.30;63.26;100602.00;5057961;27;96813;-76
2021/04/12 10:16:21;;;;;;;5.75;1.75;;;;;;;9.26;62.73;100600.38;5075502;27;97681;-74
2021/04/12 10:18:57;;;;;;;7.72;1.90;;;;;;;9.17;62.99;100595.38;5042774;27;99297;-75
2021/04/12 10:21:49;;;;;;;4.18;2.30;;;;;;;8.97;62.92;100593.19;5060827;27;97034;-76
2021/04/12 10:24:28;;;;;;;;;;;;;;;8.84;63.26;100593.50;5064617;27;97258;-74
2021/04/12 10:27:12;;;;;;;4.22;1.67;;;;;;;8.91;62.91;100604.69;5075881;27;97433;-74
2021/04/12 10:29:48;;;;;;;5.82;2.05;;;;;;;8.97;62.73;100598.44;5051232;27;99503;-75
2021/04/12 10:32:30;;;;;;;4.40;1.92;;;;;;;9.00;62.42;100598.38;5036722;27;97319;-76
2021/04/12 10:35:10;;;;;;;;;;;;;;;9.05;62.59;100604.38;5076915;27;98112;-75
2021/04/12 10:38:15;;;;;;;5.53;2.70;;;;;;;9.02;62.33;100614.91;5036979;27;97324;-77
2021/04/12 10:40:45;;;;;;;7.47;2.40;;;;;;;9.15;62.12;100613.72;5073514;27;98078;-73
2021/04/12 10:43:49;;;;;;;8.00;2.58;;;;;;;9.17;61.45;100618.94;5052403;27;97113;-73
2021/04/12 10:46:34;;;;;;;6.10;2.42;;;;;;;9.06;62.07;100612.16;5033859;27;97401;-73
2021/04/12 10:49:09;;;;;;;11.27;2.60;;;;;;;9.17;61.95;100624.19;5030292;27;100804;-74
2021/04/12 10:51:47;;;;;;;3.80;2.35;;;;;;;8.98;62.63;100621.09;5044228;27;97560;-74
2021/04/12 10:54:31;;;;;;;5.63;3.10;;;;;;;8.93;63.06;100626.47;5034838;27;97454;-73
2021/04/12 10:57:18;;;;;;;4.65;2.72;;;;;;;8.81;63.18;100635.44;5060689;27;97310;-73
2021/04/12 11:00:16;;;;;;;8.57;3.60;;;;;;;8.82;63.13;100636.31;5053781;27;99715;-74
2021/04/12 11:03:10;;;;;;;6.75;2.95;;;;;;;8.88;63.19;100645.78;5025535;27;97979;-73
2021/04/12 11:05:38;;;;;;;11.60;3.25;;;;;;;8.88;63.39;100641.41;5049760;27;97055;-73
2021/04/12 11:08:23;;;;;;;3.88;3.20;;;;;;;8.76;63.98;100650.38;5067078;27;96812;-73
2021/04/12 11:11:01;;;;;;;7.05;3.35;;;;;;;8.79;63.83;100649.47;5064447;27;97719;-73
2021/04/12 11:13:45;;;;;;;12.82;3.72;;;;;;;8.71;64.08;100664.47;5067389;27;97648;-73
2021/04/12 11:16:32;;;;;;;7.00;3.78;;;;;;;8.64;64.44;100660.22;5051107;27;97495;-73
2021/04/12 11:19:31;;;;;;;4.22;3.22;;;;;;;8.67;63.59;100670.63;5072588;27;96660;-73
2021/04/12 11:21:58;;;;;;;10.73;3.92;;;;;;;8.63;62.64;100669.84;5053249;27;99605;-74
2021/04/12 11:24:43;;;;;;;6.32;3.25;;;;;;;8.74;62.03;100667.00;5054483;27;100208;-73
2021/04/12 11:27:32;;;;;;;6.10;3.47;;;;;;;8.82;61.17;100667.72;5067138;27;97204;-73
2021/04/12 11:30:17;;;;;;;7.25;3.50;;;;;;;8.88;61.23;100678.06;5049959;27;97240;-73
2021/04/12 11:32:47;;;;;;;5.07;3.70;;;;;;;8.80;60.67;100683.44;5050060;27;100110;-73
2021/04/12 11:35:34;;;;;;;8.02;3.55;;;;;;;8.74;61.27;100688.81;5064013;27;97781;-73
2021/04/12 11:38:16;;;;;;;9.05;4.65;;;;;;;8.72;62.08;100685.34;5066877;27;97093;-73
2021/04/12 11:41:01;;;;;;;5.85;4.45;;;;;;;8.75;62.00;100679.19;5041662;27;96978;-73
2021/04/12 11:43:36;;;;;;;6.13;4.35;;;;;;;8.77;61.73;100682.66;5040050;27;97987;-73
2021/04/12 11:46:11;;;;;;;7.07;3.88;;;;;;;8.75;61.26;100687.91;5045545;27;101295;-73
2021/04/12 11:48:53;;;;;;;8.27;4.72;;;;;;;8.76;61.76;100694.03;5049998;27;97241;-73
2021/04/12 11:51:45;;;;;;;7.85;4.72;;;;;;;8.64;61.57;100695.13;5055323;27;96918;-73
2021/04/12 11:54:13;;;;;;;6.50;5.30;;;;;;;8.55;61.77;100695.28;5066886;27;99101;-75
2021/04/12 11:57:00;;;;;;;9.63;5.55;;;;;;;8.65;61.32;100696.00;5025163;27;101388;-75
2021/04/12 11:59:51;;;;;;;6.22;5.00;;;;;;;8.49;60.90;100709.34;5026399;27;96864;-76
2021/04/12 12:02:35;;;;;;;8.18;5.35;;;;;;;8.39;61.21;100715.66;5031349;27;97082;-74
2021/04/12 12:05:13;;;;;;;15.85;6.88;;;;;;;8.51;61.03;100720.66;5056945;27;101396;-75
2021/04/12 12:07:49;;;;;;;19.65;11.43;;;;;;;8.49;60.43;100716.34;5024148;27;99505;-76
2021/04/12 12:10:52;;;;;;;12.23;7.72;;;;;;;8.34;60.70;100726.16;5044227;27;97530;-76
2021/04/12 12:13:43;;;;;;;13.15;7.75;;;;;;;8.30;61.09;100718.44;5023714;27;97226;-73
2021/04/12 12:16:31;;;;;;;10.32;5.45;;;;;;;8.23;61.45;100720.31;5060312;27;98149;-72
2021/04/12 12:19:24;;;;;;;14.53;5.40;;;;;;;8.29;61.15;100712.34;5050722;27;100348;-75
2021/04/12 12:21:57;;;;;;;10.80;5.65;;;;;;;8.41;60.99;100713.91;5070201;27;97034;-80
2021/04/12 12:24:26;;;;;;;14.25;5.60;;;;;;;8.43;60.41;100713.84;5054561;27;97953;-75
2021/04/12 12:27:20;;;;;;;12.07;5.57;;;;;;;8.39;60.52;100732.22;5052707;27;103181;-76
2021/04/12 12:29:53;;;;;;;13.93;5.93;;;;;;;8.35;60.39;100742.75;5069889;27;98629;-75
2021/04/12 12:32:40;;;;;;;5.65;4.13;;;;;;;8.28;60.63;100738.50;5033091;27;97283;-76
2021/04/12 12:35:34;;;;;;;8.77;4.75;;;;;;;8.33;60.91;100731.44;5068619;27;97101;-74
2021/04/12 12:38:20;;;;;;;11.90;5.68;;;;;;;8.36;60.33;100729.63;5068503;27;101107;-75
2021/04/12 12:40:51;;;;;;;10.02;5.82;;;;;;;8.29;60.61;100729.75;5052750;27;100055;-74
2021/04/12 12:43:36;;;;;;;6.93;4.80;;;;;;;8.16;59.95;100748.28;5052245;27;97194;-75
2021/04/12 12:46:11;;;;;;;7.93;4.18;;;;;;;8.20;59.75;100756.09;5045675;27;97773;-74
2021/04/12 12:48:47;;;;;;;10.88;5.18;;;;;;;8.18;59.67;100750.03;5035557;27;98719;-76
2021/04/12 12:51:19;;;;;;;7.63;5.32;;;;;;;8.24;59.18;100757.78;5029581;27;99977;-74